createdAt,value
2019-02-21T00:00:55.552Z,1027.48
2019-02-21T00:01:54.673Z,1027.53
2019-02-21T00:02:54.678Z,1027.52
2019-02-21T00:03:54.646Z,1027.55
2019-02-21T00:04:54.995Z,1027.5
2019-02-21T00:05:54.708Z,1027.51
2019-02-21T00:06:55.011Z,1027.53
2019-02-21T00:07:54.634Z,1027.54
2019-02-21T00:08:54.922Z,1027.57
2019-02-21T00:09:55.953Z,1027.58
2019-02-21T00:10:54.659Z,1027.54
2019-02-21T00:11:54.594Z,1027.57
2019-02-21T00:12:55.768Z,1027.53
2019-02-21T00:13:54.640Z,1027.52
2019-02-21T00:14:54.958Z,1027.57
2019-02-21T00:15:55.068Z,1027.51
2019-02-21T00:16:55.088Z,1027.55
2019-02-21T00:17:54.744Z,1027.58
2019-02-21T00:18:55.311Z,1027.59
2019-02-21T00:19:54.624Z,1027.59
2019-02-21T00:20:55.023Z,1027.6
2019-02-21T00:21:54.908Z,1027.65
2019-02-21T00:22:54.691Z,1027.63
2019-02-21T00:23:55.047Z,1027.63
2019-02-21T00:24:54.736Z,1027.61
2019-02-21T00:25:55.929Z,1027.63
2019-02-21T00:26:55.562Z,1027.63
2019-02-21T00:27:54.952Z,1027.61
2019-02-21T00:28:55.056Z,1027.62
2019-02-21T00:29:54.962Z,1027.64
2019-02-21T00:30:55.459Z,1027.6
2019-02-21T00:31:55.303Z,1027.6
2019-02-21T00:32:55.007Z,1027.63
2019-02-21T00:33:54.710Z,1027.61
2019-02-21T00:34:54.937Z,1027.61
2019-02-21T00:35:55.000Z,1027.63
2019-02-21T00:36:54.916Z,1027.64
2019-02-21T00:37:54.668Z,1027.66
2019-02-21T00:38:54.632Z,1027.69
2019-02-21T00:39:54.731Z,1027.67
2019-02-21T00:40:54.593Z,1027.68
2019-02-21T00:41:55.423Z,1027.69
2019-02-21T00:42:54.680Z,1027.73
2019-02-21T00:43:54.665Z,1027.72
2019-02-21T00:44:54.703Z,1027.7
2019-02-21T00:45:54.828Z,1027.72
2019-02-21T00:46:54.700Z,1027.73
2019-02-21T00:47:54.998Z,1027.75
2019-02-21T00:48:56.409Z,1027.75
2019-02-21T00:49:54.701Z,1027.75
2019-02-21T00:50:54.594Z,1027.74
2019-02-21T00:51:55.308Z,1027.79
2019-02-21T00:52:55.481Z,1027.78
2019-02-21T00:53:54.558Z,1027.8
2019-02-21T00:54:55.033Z,1027.75
2019-02-21T00:55:54.610Z,1027.74
2019-02-21T00:56:54.690Z,1027.73
2019-02-21T00:57:55.056Z,1027.77
2019-02-21T00:58:55.066Z,1027.7
2019-02-21T00:59:54.964Z,1027.72
2019-02-21T01:00:54.629Z,1027.73
2019-02-21T01:01:54.831Z,1027.75
2019-02-21T01:02:54.976Z,1027.77
2019-02-21T01:03:54.883Z,1027.76
2019-02-21T01:04:54.597Z,1027.79
2019-02-21T01:05:54.587Z,1027.76
2019-02-21T01:06:55.002Z,1027.78
2019-02-21T01:07:55.047Z,1027.81
2019-02-21T01:08:56.393Z,1027.83
2019-02-21T01:09:54.826Z,1027.82
2019-02-21T01:10:55.154Z,1027.85
2019-02-21T01:11:54.547Z,1027.8
2019-02-21T01:12:54.605Z,1027.84
2019-02-21T01:13:54.673Z,1027.85
2019-02-21T01:14:55.399Z,1027.88
2019-02-21T01:15:54.379Z,1027.88
2019-02-21T01:16:54.554Z,1027.86
2019-02-21T01:17:54.706Z,1027.88
2019-02-21T01:18:54.512Z,1027.88
2019-02-21T01:19:54.572Z,1027.94
2019-02-21T01:20:55.404Z,1027.94
2019-02-21T01:21:54.917Z,1027.95
2019-02-21T01:22:54.797Z,1027.99
2019-02-21T01:23:54.536Z,1027.98
2019-02-21T01:24:55.027Z,1027.97
2019-02-21T01:25:54.715Z,1027.96
2019-02-21T01:26:54.535Z,1027.9
2019-02-21T01:27:55.042Z,1027.94
2019-02-21T01:28:54.742Z,1027.9
2019-02-21T01:29:54.493Z,1027.93
2019-02-21T01:30:57.439Z,1027.92
2019-02-21T01:31:55.178Z,1027.87
2019-02-21T01:32:54.784Z,1027.91
2019-02-21T01:33:54.617Z,1027.91
2019-02-21T01:34:55.083Z,1027.89
2019-02-21T01:35:54.588Z,1027.9
2019-02-21T01:36:56.338Z,1027.87
2019-02-21T01:37:55.009Z,1027.9
2019-02-21T01:38:55.038Z,1027.91
2019-02-21T01:39:54.591Z,1027.86
2019-02-21T01:40:54.926Z,1027.85
2019-02-21T01:41:54.593Z,1027.9
2019-02-21T01:42:54.513Z,1027.92
2019-02-21T01:43:54.852Z,1027.93
2019-02-21T01:44:54.540Z,1027.89
2019-02-21T01:45:54.820Z,1027.88
2019-02-21T01:46:54.590Z,1027.89
2019-02-21T01:47:54.763Z,1027.84
2019-02-21T01:48:54.882Z,1027.86
2019-02-21T01:49:56.344Z,1027.85
2019-02-21T01:50:54.467Z,1027.83
2019-02-21T01:51:56.320Z,1027.79
2019-02-21T01:52:54.578Z,1027.79
2019-02-21T01:53:54.529Z,1027.77
2019-02-21T01:54:54.502Z,1027.74
2019-02-21T01:55:54.816Z,1027.71
2019-02-21T01:56:56.332Z,1027.76
2019-02-21T01:57:54.492Z,1027.76
2019-02-21T01:58:55.457Z,1027.72
2019-02-21T01:59:54.448Z,1027.71
2019-02-21T02:00:54.601Z,1027.76
2019-02-21T02:01:55.358Z,1027.72
2019-02-21T02:02:54.966Z,1027.75
2019-02-21T02:03:56.302Z,1027.75
2019-02-21T02:04:55.592Z,1027.78
2019-02-21T02:05:54.725Z,1027.78
2019-02-21T02:06:54.697Z,1027.79
2019-02-21T02:07:54.789Z,1027.76
2019-02-21T02:08:54.618Z,1027.78
2019-02-21T02:09:56.285Z,1027.75
2019-02-21T02:10:54.826Z,1027.77
2019-02-21T02:11:54.276Z,1027.77
2019-02-21T02:12:54.611Z,1027.77
2019-02-21T02:13:54.729Z,1027.78
2019-02-21T02:14:56.278Z,1027.75
2019-02-21T02:15:54.642Z,1027.8
2019-02-21T02:16:54.762Z,1027.82
2019-02-21T02:17:54.454Z,1027.8
2019-02-21T02:18:54.548Z,1027.79
2019-02-21T02:19:54.667Z,1027.79
2019-02-21T02:20:54.493Z,1027.77
2019-02-21T02:21:55.410Z,1027.82
2019-02-21T02:22:55.312Z,1027.8
2019-02-21T02:23:54.619Z,1027.81
2019-02-21T02:24:55.119Z,1027.78
2019-02-21T02:25:54.653Z,1027.77
2019-02-21T02:26:54.817Z,1027.8
2019-02-21T02:27:54.734Z,1027.8
2019-02-21T02:28:56.253Z,1027.79
2019-02-21T02:29:54.486Z,1027.8
2019-02-21T02:30:54.519Z,1027.79
2019-02-21T02:31:54.731Z,1027.81
2019-02-21T02:32:54.581Z,1027.78
2019-02-21T02:33:54.438Z,1027.82
2019-02-21T02:34:54.514Z,1027.83
2019-02-21T02:35:54.536Z,1027.85
2019-02-21T02:36:55.058Z,1027.89
2019-02-21T02:37:55.924Z,1027.9
2019-02-21T02:38:54.440Z,1027.95
2019-02-21T02:39:54.443Z,1027.95
2019-02-21T02:40:55.823Z,1027.96
2019-02-21T02:41:54.493Z,1027.95
2019-02-21T02:42:54.527Z,1027.95
2019-02-21T02:43:55.850Z,1027.99
2019-02-21T02:44:55.410Z,1027.96
2019-02-21T02:45:54.741Z,1027.96
2019-02-21T02:46:54.665Z,1027.97
2019-02-21T02:47:54.993Z,1027.96
2019-02-21T02:48:55.208Z,1027.97
2019-02-21T02:49:54.386Z,1027.98
2019-02-21T02:50:54.472Z,1027.97
2019-02-21T02:51:54.535Z,1027.95
2019-02-21T02:52:54.443Z,1027.92
2019-02-21T02:53:54.472Z,1027.94
2019-02-21T02:54:54.456Z,1027.99
2019-02-21T02:55:54.701Z,1028.01
2019-02-21T02:56:54.964Z,1027.98
2019-02-21T02:57:54.611Z,1028
2019-02-21T02:58:54.620Z,1028
2019-02-21T02:59:54.940Z,1028.03
2019-02-21T03:00:55.612Z,1028.04
2019-02-21T03:01:54.647Z,1028.02
2019-02-21T03:02:54.486Z,1028.01
2019-02-21T03:03:54.840Z,1028.01
2019-02-21T03:04:54.434Z,1028.01
2019-02-21T03:05:55.143Z,1028
2019-02-21T03:06:55.341Z,1028.03
2019-02-21T03:07:54.630Z,1028.06
2019-02-21T03:08:54.414Z,1028.06
2019-02-21T03:09:54.802Z,1028.03
2019-02-21T03:10:54.403Z,1028.05
2019-02-21T03:11:55.626Z,1028.05
2019-02-21T03:12:55.508Z,1028.02
2019-02-21T03:13:54.823Z,1028.01
2019-02-21T03:14:54.375Z,1027.98
2019-02-21T03:15:55.237Z,1027.99
2019-02-21T03:16:54.356Z,1028.01
2019-02-21T03:17:56.684Z,1028
2019-02-21T03:18:56.186Z,1028.02
2019-02-21T03:19:54.470Z,1028.03
2019-02-21T03:20:54.391Z,1028.04
2019-02-21T03:21:54.368Z,1028.03
2019-02-21T03:22:55.257Z,1028.08
2019-02-21T03:23:55.356Z,1028.08
2019-02-21T03:24:54.338Z,1028.11
2019-02-21T03:25:54.909Z,1028.11
2019-02-21T03:26:54.610Z,1028.13
2019-02-21T03:27:54.918Z,1028.14
2019-02-21T03:28:54.435Z,1028.15
2019-02-21T03:29:54.545Z,1028.12
2019-02-21T03:30:54.486Z,1028.12
2019-02-21T03:31:56.533Z,1028.13
2019-02-21T03:32:54.559Z,1028.15
2019-02-21T03:33:54.410Z,1028.18
2019-02-21T03:34:54.552Z,1028.16
2019-02-21T03:35:54.626Z,1028.17
2019-02-21T03:36:54.571Z,1028.16
2019-02-21T03:37:54.333Z,1028.17
2019-02-21T03:38:55.289Z,1028.2
2019-02-21T03:39:54.337Z,1028.16
2019-02-21T03:40:54.392Z,1028.19
2019-02-21T03:41:55.208Z,1028.17
2019-02-21T03:42:54.734Z,1028.18
2019-02-21T03:43:54.614Z,1028.14
2019-02-21T03:44:54.362Z,1028.17
2019-02-21T03:45:55.032Z,1028.17
2019-02-21T03:46:54.419Z,1028.17
2019-02-21T03:47:54.548Z,1028.15
2019-02-21T03:48:54.384Z,1028.19
2019-02-21T03:49:55.264Z,1028.18
2019-02-21T03:50:55.313Z,1028.2
2019-02-21T03:51:54.359Z,1028.18
2019-02-21T03:52:54.333Z,1028.2
2019-02-21T03:53:54.813Z,1028.2
2019-02-21T03:54:54.682Z,1028.18
2019-02-21T03:55:54.326Z,1028.2
2019-02-21T03:56:54.604Z,1028.21
2019-02-21T03:57:54.612Z,1028.22
2019-02-21T03:58:54.338Z,1028.24
2019-02-21T03:59:54.513Z,1028.22
2019-02-21T04:00:54.325Z,1028.2
2019-02-21T04:02:05.794Z,1028.26
2019-02-21T04:02:54.482Z,1028.3
2019-02-21T04:03:54.431Z,1028.26
2019-02-21T04:04:54.426Z,1028.28
2019-02-21T04:05:54.643Z,1028.24
2019-02-21T04:06:54.780Z,1028.29
2019-02-21T04:07:54.352Z,1028.29
2019-02-21T04:08:54.397Z,1028.3
2019-02-21T04:09:54.382Z,1028.3
2019-02-21T04:10:54.632Z,1028.32
2019-02-21T04:11:55.011Z,1028.33
2019-02-21T04:12:56.120Z,1028.3
2019-02-21T04:13:54.101Z,1028.32
2019-02-21T04:14:54.091Z,1028.36
2019-02-21T04:15:54.098Z,1028.34
2019-02-21T04:16:54.081Z,1028.35
2019-02-21T04:17:54.912Z,1028.34
2019-02-21T04:18:54.538Z,1028.35
2019-02-21T04:19:54.323Z,1028.35
2019-02-21T04:20:54.335Z,1028.39
2019-02-21T04:21:54.330Z,1028.41
2019-02-21T04:22:54.322Z,1028.39
2019-02-21T04:23:54.378Z,1028.34
2019-02-21T04:24:54.220Z,1028.36
2019-02-21T04:25:54.334Z,1028.37
2019-02-21T04:26:54.290Z,1028.36
2019-02-21T04:27:54.264Z,1028.36
2019-02-21T04:28:54.344Z,1028.39
2019-02-21T04:29:54.337Z,1028.33
2019-02-21T04:30:54.390Z,1028.35
2019-02-21T04:31:54.536Z,1028.38
2019-02-21T04:32:55.043Z,1028.38
2019-02-21T04:33:55.270Z,1028.32
2019-02-21T04:34:56.099Z,1028.34
2019-02-21T04:35:54.659Z,1028.34
2019-02-21T04:36:54.514Z,1028.32
2019-02-21T04:37:54.469Z,1028.33
2019-02-21T04:38:54.415Z,1028.32
2019-02-21T04:39:54.263Z,1028.31
2019-02-21T04:40:54.680Z,1028.28
2019-02-21T04:41:54.352Z,1028.29
2019-02-21T04:42:54.677Z,1028.29
2019-02-21T04:43:54.313Z,1028.29
2019-02-21T04:44:54.782Z,1028.31
2019-02-21T04:45:54.518Z,1028.32
2019-02-21T04:46:54.524Z,1028.32
2019-02-21T04:47:55.017Z,1028.31
2019-02-21T04:48:54.355Z,1028.35
2019-02-21T04:49:54.541Z,1028.29
2019-02-21T04:50:54.662Z,1028.31
2019-02-21T04:51:54.332Z,1028.27
2019-02-21T04:52:54.300Z,1028.33
2019-02-21T04:53:54.234Z,1028.29
2019-02-21T04:54:55.188Z,1028.3
2019-02-21T04:55:54.249Z,1028.33
2019-02-21T04:56:54.594Z,1028.31
2019-02-21T04:57:54.732Z,1028.33
2019-02-21T04:58:54.262Z,1028.31
2019-02-21T04:59:54.602Z,1028.33
2019-02-21T05:00:56.031Z,1028.35
2019-02-21T05:01:54.020Z,1028.34
2019-02-21T05:02:54.023Z,1028.3
2019-02-21T05:03:54.019Z,1028.37
2019-02-21T05:04:54.303Z,1028.32
2019-02-21T05:05:54.287Z,1028.34
2019-02-21T05:06:54.388Z,1028.35
2019-02-21T05:07:55.099Z,1028.41
2019-02-21T05:08:54.757Z,1028.44
2019-02-21T05:09:58.667Z,1028.43
2019-02-21T05:10:54.259Z,1028.44
2019-02-21T05:11:54.241Z,1028.46
2019-02-21T05:12:54.427Z,1028.44
2019-02-21T05:13:55.732Z,1028.42
2019-02-21T05:14:56.031Z,1028.38
2019-02-21T05:15:54.279Z,1028.38
2019-02-21T05:16:55.222Z,1028.35
2019-02-21T05:17:54.723Z,1028.35
2019-02-21T05:18:54.726Z,1028.36
2019-02-21T05:19:54.435Z,1028.34
2019-02-21T05:20:55.048Z,1028.31
2019-02-21T05:21:54.195Z,1028.33
2019-02-21T05:22:54.240Z,1028.34
2019-02-21T05:23:54.205Z,1028.34
2019-02-21T05:24:54.132Z,1028.37
2019-02-21T05:25:54.371Z,1028.38
2019-02-21T05:26:54.491Z,1028.39
2019-02-21T05:27:54.396Z,1028.42
2019-02-21T05:28:54.173Z,1028.38
2019-02-21T05:29:54.609Z,1028.37
2019-02-21T05:30:54.304Z,1028.36
2019-02-21T05:31:54.205Z,1028.35
2019-02-21T05:32:54.219Z,1028.36
2019-02-21T05:33:54.523Z,1028.4
2019-02-21T05:34:54.233Z,1028.37
2019-02-21T05:35:54.193Z,1028.39
2019-02-21T05:36:54.205Z,1028.37
2019-02-21T05:37:54.207Z,1028.37
2019-02-21T05:38:54.755Z,1028.35
2019-02-21T05:39:55.187Z,1028.35
2019-02-21T05:40:55.982Z,1028.37
2019-02-21T05:41:54.274Z,1028.41
2019-02-21T05:42:54.170Z,1028.38
2019-02-21T05:43:54.362Z,1028.38
2019-02-21T05:44:54.388Z,1028.34
2019-02-21T05:45:54.207Z,1028.37
2019-02-21T05:46:54.100Z,1028.35
2019-02-21T05:47:54.527Z,1028.36
2019-02-21T05:48:54.217Z,1028.35
2019-02-21T05:49:54.180Z,1028.37
2019-02-21T05:50:54.437Z,1028.34
2019-02-21T05:51:54.239Z,1028.38
2019-02-21T05:52:54.350Z,1028.4
2019-02-21T05:53:54.350Z,1028.42
2019-02-21T05:54:54.355Z,1028.45
2019-02-21T05:55:54.539Z,1028.46
2019-02-21T05:56:54.222Z,1028.43
2019-02-21T05:57:54.135Z,1028.42
2019-02-21T05:58:54.091Z,1028.42
2019-02-21T05:59:54.271Z,1028.39
2019-02-21T06:00:55.179Z,1028.42
2019-02-21T06:01:54.412Z,1028.45
2019-02-21T06:02:54.614Z,1028.46
2019-02-21T06:03:54.216Z,1028.46
2019-02-21T06:04:54.439Z,1028.5
2019-02-21T06:05:54.148Z,1028.48
2019-02-21T06:06:55.949Z,1028.51
2019-02-21T06:07:54.457Z,1028.54
2019-02-21T06:08:54.109Z,1028.52
2019-02-21T06:09:54.111Z,1028.48
2019-02-21T06:10:54.560Z,1028.48
2019-02-21T06:11:54.261Z,1028.49
2019-02-21T06:12:54.675Z,1028.5
2019-02-21T06:13:54.501Z,1028.51
2019-02-21T06:14:54.597Z,1028.57
2019-02-21T06:15:54.873Z,1028.59
2019-02-21T06:16:55.942Z,1028.57
2019-02-21T06:17:54.146Z,1028.58
2019-02-21T06:18:54.312Z,1028.59
2019-02-21T06:19:54.745Z,1028.57
2019-02-21T06:20:54.124Z,1028.61
2019-02-21T06:21:54.954Z,1028.6
2019-02-21T06:22:55.916Z,1028.57
2019-02-21T06:23:54.919Z,1028.58
2019-02-21T06:24:54.135Z,1028.62
2019-02-21T06:25:59.228Z,1028.61
2019-02-21T06:26:55.352Z,1028.58
2019-02-21T06:27:54.208Z,1028.6
2019-02-21T06:28:54.703Z,1028.57
2019-02-21T06:29:54.450Z,1028.58
2019-02-21T06:30:54.036Z,1028.6
2019-02-21T06:31:54.610Z,1028.59
2019-02-21T06:33:05.438Z,1028.58
2019-02-21T06:33:54.061Z,1028.52
2019-02-21T06:34:54.323Z,1028.53
2019-02-21T06:35:54.418Z,1028.53
2019-02-21T06:36:54.187Z,1028.53
2019-02-21T06:37:54.311Z,1028.54
2019-02-21T06:38:54.269Z,1028.51
2019-02-21T06:39:54.659Z,1028.49
2019-02-21T06:40:54.225Z,1028.44
2019-02-21T06:42:00.298Z,1028.46
2019-02-21T06:42:54.080Z,1028.49
2019-02-21T06:43:57.096Z,1028.51
2019-02-21T06:44:55.910Z,1028.54
2019-02-21T06:45:58.270Z,1028.54
2019-02-21T06:46:54.051Z,1028.56
2019-02-21T06:47:54.283Z,1028.56
2019-02-21T06:48:54.825Z,1028.57
2019-02-21T06:49:54.055Z,1028.62
2019-02-21T06:50:55.740Z,1028.61
2019-02-21T06:51:54.433Z,1028.63
2019-02-21T06:52:54.331Z,1028.61
2019-02-21T06:53:54.779Z,1028.59
2019-02-21T06:54:54.171Z,1028.6
2019-02-21T06:55:55.914Z,1028.62
2019-02-21T06:56:54.277Z,1028.61
2019-02-21T06:57:54.035Z,1028.65
2019-02-21T06:58:54.224Z,1028.66
2019-02-21T06:59:54.128Z,1028.71
2019-02-21T07:00:54.278Z,1028.71
2019-02-21T07:01:54.228Z,1028.74
2019-02-21T07:02:54.528Z,1028.75
2019-02-21T07:03:54.184Z,1028.78
2019-02-21T07:04:56.906Z,1028.77
2019-02-21T07:05:54.825Z,1028.79
2019-02-21T07:06:57.042Z,1028.8
2019-02-21T07:07:54.140Z,1028.82
2019-02-21T07:08:54.365Z,1028.86
2019-02-21T07:09:54.344Z,1028.82
2019-02-21T07:11:06.563Z,1028.82
2019-02-21T07:11:55.844Z,1028.81
2019-02-21T07:12:54.151Z,1028.85
2019-02-21T07:13:55.523Z,1028.8
2019-02-21T07:14:54.106Z,1028.78
2019-02-21T07:15:54.094Z,1028.81
2019-02-21T07:16:54.387Z,1028.82
2019-02-21T07:17:55.006Z,1028.88
2019-02-21T07:18:54.414Z,1028.86
2019-02-21T07:19:54.188Z,1028.87
2019-02-21T07:20:54.449Z,1028.8
2019-02-21T07:21:54.225Z,1028.77
2019-02-21T07:22:54.246Z,1028.73
2019-02-21T07:23:54.742Z,1028.78
2019-02-21T07:24:54.398Z,1028.86
2019-02-21T07:25:54.200Z,1028.85
2019-02-21T07:26:55.861Z,1028.9
2019-02-21T07:27:54.767Z,1028.92
2019-02-21T07:28:54.679Z,1028.99
2019-02-21T07:29:55.837Z,1029.04
2019-02-21T07:30:54.479Z,1029.1
2019-02-21T07:31:54.180Z,1029.03
2019-02-21T07:32:54.022Z,1028.99
2019-02-21T07:33:54.307Z,1028.97
2019-02-21T07:34:54.011Z,1028.94
2019-02-21T07:35:54.409Z,1028.95
2019-02-21T07:36:54.323Z,1028.96
2019-02-21T07:37:54.032Z,1028.91
2019-02-21T07:39:16.698Z,1028.93
2019-02-21T07:39:54.012Z,1028.98
2019-02-21T07:40:54.823Z,1029.04
2019-02-21T07:41:55.944Z,1029.03
2019-02-21T07:42:54.086Z,1029.03
2019-02-21T07:43:54.264Z,1029
2019-02-21T07:44:54.554Z,1029.01
2019-02-21T07:45:54.380Z,1029.04
2019-02-21T07:46:54.053Z,1029.11
2019-02-21T07:47:55.800Z,1029.15
2019-02-21T07:48:53.987Z,1029.13
2019-02-21T07:49:54.515Z,1029.17
2019-02-21T07:50:55.820Z,1029.16
2019-02-21T07:51:54.959Z,1029.18
2019-02-21T07:53:02.974Z,1029.19
2019-02-21T07:53:53.996Z,1029.23
2019-02-21T07:55:02.369Z,1029.21
2019-02-21T07:55:56.008Z,1029.19
2019-02-21T07:56:54.043Z,1029.2
2019-02-21T07:57:54.827Z,1029.15
2019-02-21T07:58:54.044Z,1029.2
2019-02-21T07:59:54.676Z,1029.19
2019-02-21T08:00:54.376Z,1029.22
2019-02-21T08:01:54.251Z,1029.22
2019-02-21T08:02:54.882Z,1029.19
2019-02-21T08:03:54.012Z,1029.2
2019-02-21T08:04:54.052Z,1029.18
2019-02-21T08:05:54.025Z,1029.17
2019-02-21T08:06:55.828Z,1029.22
2019-02-21T08:07:54.455Z,1029.18
2019-02-21T08:08:54.002Z,1029.12
2019-02-21T08:09:53.931Z,1029.1
2019-02-21T08:10:53.950Z,1029.09
2019-02-21T08:11:53.988Z,1029.14
2019-02-21T08:12:55.777Z,1029.2
2019-02-21T08:13:55.369Z,1029.17
2019-02-21T08:14:56.475Z,1029.13
2019-02-21T08:15:54.095Z,1029.12
2019-02-21T08:16:56.281Z,1029.11
2019-02-21T08:17:54.904Z,1029.1
2019-02-21T08:18:53.942Z,1029.12
2019-02-21T08:19:53.955Z,1029.1
2019-02-21T08:20:54.097Z,1029.19
2019-02-21T08:21:55.759Z,1029.18
2019-02-21T08:22:54.321Z,1029.21
2019-02-21T08:23:53.999Z,1029.26
2019-02-21T08:24:56.744Z,1029.25
2019-02-21T08:25:53.924Z,1029.25
2019-02-21T08:26:54.117Z,1029.29
2019-02-21T08:27:53.938Z,1029.26
2019-02-21T08:28:53.911Z,1029.27
2019-02-21T08:29:54.368Z,1029.25
2019-02-21T08:30:54.302Z,1029.25
2019-02-21T08:31:54.377Z,1029.26
2019-02-21T08:32:53.971Z,1029.32
2019-02-21T08:33:58.936Z,1029.3
2019-02-21T08:34:53.876Z,1029.31
2019-02-21T08:35:57.565Z,1029.26
2019-02-21T08:36:54.614Z,1029.24
2019-02-21T08:37:54.999Z,1029.26
2019-02-21T08:38:54.565Z,1029.21
2019-02-21T08:39:53.984Z,1029.23
2019-02-21T08:40:57.341Z,1029.22
2019-02-21T08:41:55.404Z,1029.26
2019-02-21T08:42:53.948Z,1029.21
2019-02-21T08:43:54.119Z,1029.23
2019-02-21T08:44:53.981Z,1029.23
2019-02-21T08:45:54.263Z,1029.26
2019-02-21T08:46:54.008Z,1029.27
2019-02-21T08:47:54.175Z,1029.27
2019-02-21T08:48:54.494Z,1029.28
2019-02-21T08:49:54.393Z,1029.3
2019-02-21T08:50:54.515Z,1029.3
2019-02-21T08:51:55.719Z,1029.31
2019-02-21T08:52:53.961Z,1029.3
2019-02-21T08:53:53.858Z,1029.3
2019-02-21T08:55:00.767Z,1029.34
2019-02-21T08:55:56.179Z,1029.28
2019-02-21T08:56:54.147Z,1029.29
2019-02-21T08:57:54.248Z,1029.27
2019-02-21T08:58:54.757Z,1029.26
2019-02-21T08:59:53.928Z,1029.28
2019-02-21T09:00:54.730Z,1029.27
2019-02-21T09:01:53.988Z,1029.3
2019-02-21T09:02:54.288Z,1029.33
2019-02-21T09:03:54.284Z,1029.36
2019-02-21T09:04:54.200Z,1029.35
2019-02-21T09:05:53.982Z,1029.33
2019-02-21T09:06:54.019Z,1029.37
2019-02-21T09:07:53.921Z,1029.39
2019-02-21T09:08:54.052Z,1029.41
2019-02-21T09:09:54.227Z,1029.41
2019-02-21T09:10:54.352Z,1029.39
2019-02-21T09:11:55.743Z,1029.41
2019-02-21T09:12:54.136Z,1029.44
2019-02-21T09:13:56.009Z,1029.44
2019-02-21T09:14:54.464Z,1029.47
2019-02-21T09:15:56.163Z,1029.43
2019-02-21T09:16:53.965Z,1029.46
2019-02-21T09:17:55.683Z,1029.44
2019-02-21T09:18:54.180Z,1029.46
2019-02-21T09:19:53.673Z,1029.42
2019-02-21T09:20:54.535Z,1029.41
2019-02-21T09:21:54.718Z,1029.41
2019-02-21T09:22:54.008Z,1029.47
2019-02-21T09:23:56.953Z,1029.42
2019-02-21T09:24:54.240Z,1029.48
2019-02-21T09:25:54.129Z,1029.48
2019-02-21T09:26:53.915Z,1029.41
2019-02-21T09:27:53.948Z,1029.44
2019-02-21T09:28:55.646Z,1029.45
2019-02-21T09:29:54.152Z,1029.44
2019-02-21T09:30:54.071Z,1029.43
2019-02-21T09:31:54.161Z,1029.44
2019-02-21T09:32:53.913Z,1029.41
2019-02-21T09:33:54.182Z,1029.41
2019-02-21T09:34:55.644Z,1029.42
2019-02-21T09:35:56.876Z,1029.44
2019-02-21T09:36:53.889Z,1029.43
2019-02-21T09:37:54.102Z,1029.41
2019-02-21T09:38:54.311Z,1029.45
2019-02-21T09:39:53.926Z,1029.44
2019-02-21T09:40:54.147Z,1029.47
2019-02-21T09:41:53.851Z,1029.46
2019-02-21T09:42:54.127Z,1029.48
2019-02-21T09:43:55.636Z,1029.48
2019-02-21T09:44:54.370Z,1029.52
2019-02-21T09:45:54.163Z,1029.5
2019-02-21T09:46:55.622Z,1029.49
2019-02-21T09:47:54.685Z,1029.51
2019-02-21T09:48:54.077Z,1029.53
2019-02-21T09:49:56.612Z,1029.51
2019-02-21T09:50:53.936Z,1029.51
2019-02-21T09:51:54.051Z,1029.49
2019-02-21T09:52:54.108Z,1029.44
2019-02-21T09:53:54.621Z,1029.45
2019-02-21T09:54:53.844Z,1029.41
2019-02-21T09:55:53.901Z,1029.4
2019-02-21T09:56:54.229Z,1029.39
2019-02-21T09:57:54.034Z,1029.42
2019-02-21T09:58:53.794Z,1029.37
2019-02-21T09:59:54.062Z,1029.43
2019-02-21T10:00:54.259Z,1029.42
2019-02-21T10:01:53.991Z,1029.42
2019-02-21T10:02:56.893Z,1029.39
2019-02-21T10:03:54.179Z,1029.4
2019-02-21T10:05:05.611Z,1029.36
2019-02-21T10:05:54.238Z,1029.34
2019-02-21T10:06:53.768Z,1029.36
2019-02-21T10:07:55.604Z,1029.35
2019-02-21T10:08:54.669Z,1029.34
2019-02-21T10:09:54.226Z,1029.33
2019-02-21T10:10:54.021Z,1029.34
2019-02-21T10:11:53.744Z,1029.31
2019-02-21T10:12:53.986Z,1029.3
2019-02-21T10:13:54.035Z,1029.29
2019-02-21T10:14:54.451Z,1029.27
2019-02-21T10:15:53.750Z,1029.28
2019-02-21T10:16:54.064Z,1029.27
2019-02-21T10:17:55.592Z,1029.22
2019-02-21T10:18:53.771Z,1029.21
2019-02-21T10:19:54.194Z,1029.22
2019-02-21T10:20:54.594Z,1029.22
2019-02-21T10:21:53.580Z,1029.24
2019-02-21T10:22:53.998Z,1029.25
2019-02-21T10:23:56.963Z,1029.21
2019-02-21T10:24:57.248Z,1029.24
2019-02-21T10:25:54.115Z,1029.25
2019-02-21T10:26:55.570Z,1029.28
2019-02-21T10:27:54.023Z,1029.3
2019-02-21T10:28:54.731Z,1029.37
2019-02-21T10:29:54.747Z,1029.39
2019-02-21T10:30:55.168Z,1029.4
2019-02-21T10:31:55.567Z,1029.35
2019-02-21T10:32:54.119Z,1029.35
2019-02-21T10:33:53.965Z,1029.4
2019-02-21T10:34:53.726Z,1029.38
2019-02-21T10:35:55.545Z,1029.42
2019-02-21T10:36:53.686Z,1029.4
2019-02-21T10:37:53.756Z,1029.43
2019-02-21T10:38:54.571Z,1029.4
2019-02-21T10:39:53.734Z,1029.43
2019-02-21T10:40:53.915Z,1029.44
2019-02-21T10:41:54.637Z,1029.42
2019-02-21T10:42:54.696Z,1029.42
2019-02-21T10:43:54.057Z,1029.4
2019-02-21T10:44:55.551Z,1029.4
2019-02-21T10:45:53.859Z,1029.4
2019-02-21T10:46:55.537Z,1029.42
2019-02-21T10:47:53.665Z,1029.38
2019-02-21T10:48:53.900Z,1029.39
2019-02-21T10:49:54.431Z,1029.38
2019-02-21T10:50:53.953Z,1029.4
2019-02-21T10:51:54.298Z,1029.43
2019-02-21T10:52:54.911Z,1029.45
2019-02-21T10:53:53.800Z,1029.45
2019-02-21T10:54:53.713Z,1029.41
2019-02-21T10:55:54.735Z,1029.48
2019-02-21T10:56:53.735Z,1029.49
2019-02-21T10:57:53.682Z,1029.49
2019-02-21T10:58:53.943Z,1029.5
2019-02-21T10:59:54.345Z,1029.46
2019-02-21T11:00:54.041Z,1029.47
2019-02-21T11:01:54.152Z,1029.48
2019-02-21T11:02:53.911Z,1029.43
2019-02-21T11:03:53.681Z,1029.35
2019-02-21T11:04:55.371Z,1029.37
2019-02-21T11:05:53.962Z,1029.36
2019-02-21T11:06:53.877Z,1029.34
2019-02-21T11:07:53.792Z,1029.32
2019-02-21T11:08:54.137Z,1029.33
2019-02-21T11:09:54.121Z,1029.32
2019-02-21T11:10:54.015Z,1029.33
2019-02-21T11:11:54.019Z,1029.31
2019-02-21T11:12:55.490Z,1029.31
2019-02-21T11:13:54.861Z,1029.3
2019-02-21T11:14:54.100Z,1029.31
2019-02-21T11:15:54.046Z,1029.28
2019-02-21T11:16:53.666Z,1029.25
2019-02-21T11:17:54.051Z,1029.22
2019-02-21T11:18:54.367Z,1029.24
2019-02-21T11:19:53.863Z,1029.23
2019-02-21T11:20:53.855Z,1029.25
2019-02-21T11:21:54.085Z,1029.2
2019-02-21T11:22:54.095Z,1029.19
2019-02-21T11:23:54.061Z,1029.18
2019-02-21T11:24:54.159Z,1029.24
2019-02-21T11:25:53.814Z,1029.2
2019-02-21T11:26:53.676Z,1029.2
2019-02-21T11:27:54.127Z,1029.19
2019-02-21T11:28:53.937Z,1029.2
2019-02-21T11:29:53.680Z,1029.17
2019-02-21T11:30:53.737Z,1029.17
2019-02-21T11:31:53.644Z,1029.13
2019-02-21T11:32:53.817Z,1029.05
2019-02-21T11:33:54.266Z,1029.06
2019-02-21T11:34:53.632Z,1029.03
2019-02-21T11:35:54.220Z,1029.04
2019-02-21T11:36:53.964Z,1029.01
2019-02-21T11:37:53.637Z,1029.02
2019-02-21T11:38:54.003Z,1029.01
2019-02-21T11:39:54.005Z,1029
2019-02-21T11:40:53.743Z,1029
2019-02-21T11:41:53.612Z,1029
2019-02-21T11:42:54.649Z,1028.98
2019-02-21T11:43:53.827Z,1028.98
2019-02-21T11:44:53.936Z,1028.98
2019-02-21T11:45:57.599Z,1028.96
2019-02-21T11:46:53.748Z,1028.96
2019-02-21T11:47:53.955Z,1028.96
2019-02-21T11:48:55.451Z,1028.9
2019-02-21T11:49:53.434Z,1028.89
2019-02-21T11:50:53.445Z,1028.88
2019-02-21T11:51:53.457Z,1028.85
2019-02-21T11:52:53.434Z,1028.83
2019-02-21T11:53:53.893Z,1028.82
2019-02-21T11:54:53.646Z,1028.83
2019-02-21T11:55:54.009Z,1028.82
2019-02-21T11:56:54.668Z,1028.81
2019-02-21T11:57:53.676Z,1028.82
2019-02-21T11:58:54.252Z,1028.82
2019-02-21T11:59:54.472Z,1028.81
2019-02-21T12:00:53.941Z,1028.85
2019-02-21T12:01:53.675Z,1028.85
2019-02-21T12:02:55.075Z,1028.83
2019-02-21T12:03:53.958Z,1028.86
2019-02-21T12:04:53.964Z,1028.87
2019-02-21T12:05:53.978Z,1028.83
2019-02-21T12:06:53.608Z,1028.8
2019-02-21T12:07:53.574Z,1028.78
2019-02-21T12:08:53.631Z,1028.76